createdAt,value
2024-02-29T00:01:00.397Z,23.07
2024-02-29T00:03:53.141Z,16.58
2024-02-29T00:06:32.061Z,19.65
2024-02-29T00:09:10.743Z,24.40
2024-02-29T00:11:46.684Z,17.23
2024-02-29T00:14:23.717Z,20.23
2024-02-29T00:17:05.905Z,18.00
2024-02-29T00:19:54.800Z,17.55
2024-02-29T00:22:31.163Z,19.05
2024-02-29T00:25:10.447Z,19.33
2024-02-29T00:27:45.480Z,15.40
2024-02-29T00:30:21.449Z,21.05
2024-02-29T00:32:59.482Z,14.77
2024-02-29T00:35:48.816Z,16.80
2024-02-29T00:38:27.944Z,15.90
2024-02-29T00:41:05.007Z,15.65
2024-02-29T00:43:48.199Z,15.40
2024-02-29T00:46:19.997Z,15.38
2024-02-29T00:49:02.901Z,22.38
2024-02-29T00:51:44.918Z,15.23
2024-02-29T00:54:33.215Z,15.10
2024-02-29T00:57:23.892Z,23.13
2024-02-29T01:00:08.005Z,19.08
2024-02-29T01:02:49.246Z,22.42
2024-02-29T01:05:28.759Z,15.20
2024-02-29T01:08:14.996Z,15.73
2024-02-29T01:10:55.497Z,16.60
2024-02-29T01:13:33.535Z,19.48
2024-02-29T01:16:21.251Z,19.95
2024-02-29T01:19:02.260Z,18.92
2024-02-29T01:21:43.893Z,18.20
2024-02-29T01:24:22.937Z,13.27
2024-02-29T01:27:01.629Z,16.67
2024-02-29T01:29:44.749Z,16.25
2024-02-29T01:32:27.022Z,14.35
2024-02-29T01:35:14.991Z,14.20
2024-02-29T01:37:55.841Z,16.17
2024-02-29T01:40:35.518Z,20.63
2024-02-29T01:43:16.373Z,21.30
2024-02-29T01:45:57.523Z,15.82
2024-02-29T01:51:10.449Z,17.15
2024-02-29T01:53:45.665Z,18.55
2024-02-29T01:56:30.537Z,18.05
2024-02-29T01:59:16.629Z,16.25
2024-02-29T02:01:53.475Z,23.15
2024-02-29T02:04:34.108Z,17.35
2024-02-29T02:07:12.810Z,16.57
2024-02-29T02:09:48.477Z,22.45
2024-02-29T02:12:38.914Z,19.02
2024-02-29T02:15:17.153Z,22.90
2024-02-29T02:17:53.988Z,19.63
2024-02-29T02:20:40.870Z,18.77
2024-02-29T02:23:27.106Z,20.10
2024-02-29T02:26:03.980Z,17.27
2024-02-29T02:28:37.414Z,25.85
2024-02-29T02:31:26.089Z,19.50
2024-02-29T02:34:03.335Z,23.70
2024-02-29T02:36:56.687Z,22.13
2024-02-29T02:39:37.942Z,20.60
2024-02-29T02:44:52.760Z,20.33
2024-02-29T02:47:28.362Z,25.23
2024-02-29T02:50:07.167Z,23.08
2024-02-29T02:52:44.415Z,22.55
2024-02-29T02:55:22.740Z,30.42
2024-02-29T02:58:04.568Z,21.63
2024-02-29T03:00:42.896Z,21.30
2024-02-29T03:03:22.356Z,27.30
2024-02-29T03:06:01.900Z,21.23
2024-02-29T03:08:52.077Z,22.92
2024-02-29T03:11:32.336Z,22.48
2024-02-29T03:14:10.818Z,26.42
2024-02-29T03:16:50.080Z,21.73
2024-02-29T03:19:28.687Z,24.70
2024-02-29T03:22:06.390Z,23.35
2024-02-29T03:24:51.229Z,27.42
2024-02-29T03:27:43.065Z,25.35
2024-02-29T03:30:20.529Z,20.33
2024-02-29T03:32:59.755Z,25.17
2024-02-29T03:35:37.350Z,26.23
2024-02-29T03:38:19.156Z,18.77
2024-02-29T03:41:07.433Z,23.13
2024-02-29T03:43:41.063Z,24.60
2024-02-29T03:46:20.169Z,22.95
2024-02-29T03:48:54.248Z,21.08
2024-02-29T03:51:35.203Z,24.10
2024-02-29T03:54:13.400Z,26.52
2024-02-29T03:56:55.557Z,20.33
2024-02-29T03:59:36.934Z,22.73
2024-02-29T04:02:10.784Z,21.48
2024-02-29T04:04:48.421Z,23.25
2024-02-29T04:07:27.459Z,23.63
2024-02-29T04:10:04.817Z,22.50
2024-02-29T04:12:59.050Z,18.98
2024-02-29T04:15:34.441Z,21.67
2024-02-29T04:18:24.688Z,24.83
2024-02-29T04:21:07.414Z,21.25
2024-02-29T04:23:48.045Z,26.77
2024-02-29T04:26:28.238Z,25.23
2024-02-29T04:29:09.229Z,20.83
2024-02-29T04:31:57.878Z,23.10
2024-02-29T04:34:35.041Z,21.52
2024-02-29T04:37:15.810Z,23.90
2024-02-29T04:39:57.472Z,23.73
2024-02-29T04:42:38.361Z,23.40
2024-02-29T04:45:20.943Z,28.17
2024-02-29T04:47:52.880Z,25.08
2024-02-29T04:50:43.892Z,33.38
2024-02-29T04:53:16.133Z,24.55
2024-02-29T04:56:04.243Z,23.85
2024-02-29T04:58:38.608Z,21.00
2024-02-29T05:01:29.501Z,31.08
2024-02-29T05:04:11.503Z,26.13
2024-02-29T05:06:48.618Z,24.30
2024-02-29T05:09:21.613Z,23.90
2024-02-29T05:11:57.752Z,29.27
2024-02-29T05:14:32.666Z,24.17
2024-02-29T05:17:17.140Z,25.70
2024-02-29T05:19:50.737Z,25.85
2024-02-29T05:22:32.889Z,22.25
2024-02-29T05:25:17.098Z,23.17
2024-02-29T05:27:56.900Z,20.55
2024-02-29T05:30:38.424Z,28.70
2024-02-29T05:33:39.900Z,26.52
2024-02-29T05:36:19.567Z,24.60
2024-02-29T05:38:58.410Z,27.92
2024-02-29T05:41:39.412Z,21.60
2024-02-29T05:44:11.834Z,21.98
2024-02-29T05:46:46.649Z,30.73
2024-02-29T05:49:29.833Z,27.05
2024-02-29T05:52:10.821Z,21.73
2024-02-29T05:54:51.118Z,25.63
2024-02-29T05:57:39.337Z,22.02
2024-02-29T06:00:21.659Z,27.08
2024-02-29T06:03:00.670Z,26.65
2024-02-29T06:05:46.537Z,25.48
2024-02-29T06:08:38.978Z,22.38
2024-02-29T06:11:29.863Z,21.88
2024-02-29T06:14:10.354Z,25.30
2024-02-29T06:16:48.236Z,25.42
2024-02-29T06:19:31.595Z,28.45
2024-02-29T06:22:15.728Z,23.15
2024-02-29T06:24:55.747Z,27.73
2024-02-29T06:27:43.324Z,30.17
2024-02-29T06:30:38.584Z,29.42
2024-02-29T06:33:23.375Z,21.63
2024-02-29T06:36:09.883Z,27.05
2024-02-29T06:38:56.753Z,32.33
2024-02-29T06:41:57.389Z,23.98
2024-02-29T06:44:37.853Z,25.52
2024-02-29T06:47:22.484Z,27.40
2024-02-29T06:50:10.357Z,21.95
2024-02-29T06:52:44.333Z,26.88
2024-02-29T06:55:22.332Z,24.48
2024-02-29T06:58:16.521Z,24.02
2024-02-29T07:00:56.877Z,28.33
2024-02-29T07:03:32.839Z,23.50
2024-02-29T07:06:22.948Z,24.85
2024-02-29T07:09:03.501Z,24.48
2024-02-29T07:11:58.898Z,32.38
2024-02-29T07:14:38.437Z,25.98
2024-02-29T07:17:18.923Z,25.30
2024-02-29T07:19:59.482Z,26.30
2024-02-29T07:22:41.652Z,28.90
2024-02-29T07:28:18.896Z,24.02
2024-02-29T07:31:01.630Z,22.50
2024-02-29T07:33:47.129Z,24.40
2024-02-29T07:36:26.449Z,26.17
2024-02-29T07:39:04.766Z,36.30
2024-02-29T07:41:45.418Z,23.70
2024-02-29T07:44:32.322Z,21.92
2024-02-29T07:47:11.318Z,23.35
2024-02-29T07:49:56.206Z,21.58
2024-02-29T07:52:37.260Z,21.00
2024-02-29T07:55:14.186Z,23.60
2024-02-29T07:57:55.870Z,21.80
2024-02-29T08:00:39.955Z,29.35
2024-02-29T08:03:18.457Z,26.50
2024-02-29T08:06:08.192Z,26.60
2024-02-29T08:08:43.801Z,26.77
2024-02-29T08:11:32.016Z,21.27
2024-02-29T08:14:06.386Z,30.40
2024-02-29T08:16:51.947Z,24.90
2024-02-29T08:19:25.137Z,34.88
2024-02-29T08:22:03.046Z,28.67
2024-02-29T08:27:40.101Z,24.30
2024-02-29T08:30:21.516Z,28.30
2024-02-29T08:33:01.163Z,24.40
2024-02-29T08:35:38.399Z,22.55
2024-02-29T08:38:24.809Z,25.48
2024-02-29T08:41:17.899Z,21.88
2024-02-29T08:44:09.566Z,24.95
2024-02-29T08:47:06.833Z,25.23
2024-02-29T08:49:54.609Z,26.23
2024-02-29T08:52:41.562Z,24.88
2024-02-29T08:55:30.648Z,27.48
2024-02-29T08:58:14.089Z,22.67
2024-02-29T09:00:51.893Z,19.50
2024-02-29T09:03:33.305Z,29.70
2024-02-29T09:06:21.247Z,22.38
2024-02-29T09:09:03.500Z,21.67
2024-02-29T09:11:40.102Z,24.05
2024-02-29T09:14:16.581Z,24.65
2024-02-29T09:16:54.386Z,24.15
2024-02-29T09:19:30.666Z,22.33
2024-02-29T09:22:21.562Z,25.70
2024-02-29T09:24:59.732Z,21.70
2024-02-29T09:27:50.188Z,20.85
2024-02-29T09:30:33.001Z,23.33
2024-02-29T09:33:12.611Z,21.38
2024-02-29T09:35:59.465Z,28.58
2024-02-29T09:38:40.038Z,19.83
2024-02-29T09:41:25.444Z,21.25
2024-02-29T09:44:09.900Z,23.27
2024-02-29T09:46:54.955Z,18.90
2024-02-29T09:49:35.988Z,25.40
2024-02-29T09:52:14.754Z,24.85
2024-02-29T09:54:59.223Z,20.30
2024-02-29T09:57:45.578Z,21.70
2024-02-29T10:00:28.924Z,23.50
2024-02-29T10:03:03.049Z,21.80
2024-02-29T10:05:38.274Z,20.70
2024-02-29T10:08:19.265Z,18.02
2024-02-29T10:11:12.763Z,30.20
2024-02-29T10:13:48.738Z,20.60
2024-02-29T10:16:29.225Z,26.88
2024-02-29T10:19:07.717Z,19.17
2024-02-29T10:21:47.889Z,24.25
2024-02-29T10:24:36.097Z,23.30
2024-02-29T10:27:15.117Z,24.38
2024-02-29T10:29:50.945Z,23.23
2024-02-29T10:32:28.870Z,26.65
2024-02-29T10:35:05.185Z,21.80
2024-02-29T10:37:45.287Z,25.50
2024-02-29T10:40:24.861Z,21.10
2024-02-29T10:43:21.081Z,24.75
2024-02-29T10:46:03.877Z,27.00
2024-02-29T10:49:01.987Z,22.10
2024-02-29T10:51:47.534Z,30.52
2024-02-29T10:54:29.853Z,23.70
2024-02-29T10:57:22.302Z,27.77
2024-02-29T11:00:22.752Z,21.05
2024-02-29T11:03:02.023Z,21.37
2024-02-29T11:05:42.079Z,22.58
2024-02-29T11:08:23.990Z,25.65
2024-02-29T11:11:07.818Z,25.33
2024-02-29T11:13:46.218Z,24.85
2024-02-29T11:16:35.924Z,21.52
2024-02-29T11:19:24.064Z,24.83
2024-02-29T11:22:00.739Z,22.08
2024-02-29T11:24:54.940Z,28.13
2024-02-29T11:27:53.640Z,25.77
2024-02-29T11:30:35.137Z,27.50
2024-02-29T11:33:19.351Z,28.88
2024-02-29T11:36:01.487Z,21.90
2024-02-29T11:38:43.233Z,22.15
2024-02-29T11:41:34.982Z,29.73
2024-02-29T11:44:12.492Z,29.85
2024-02-29T11:46:56.745Z,25.95
2024-02-29T11:49:43.052Z,24.65
2024-02-29T11:52:18.281Z,27.95
2024-02-29T11:54:55.757Z,27.75
2024-02-29T11:57:28.002Z,28.17
2024-02-29T12:00:01.818Z,34.72
2024-02-29T12:03:05.517Z,27.50
2024-02-29T12:05:48.490Z,28.17
2024-02-29T12:08:32.344Z,23.80
2024-02-29T12:11:20.004Z,26.25
2024-02-29T12:14:00.253Z,30.75
2024-02-29T12:16:33.832Z,25.20
2024-02-29T12:19:16.918Z,25.42
2024-02-29T12:22:04.782Z,24.05
2024-02-29T12:24:49.016Z,26.25
2024-02-29T12:27:28.770Z,23.15
2024-02-29T12:30:13.065Z,24.92
2024-02-29T12:32:53.276Z,27.75
2024-02-29T12:35:32.264Z,22.47
2024-02-29T12:38:28.547Z,23.90
2024-02-29T12:41:10.391Z,29.98
2024-02-29T12:43:58.974Z,22.25
2024-02-29T12:46:37.685Z,23.90
2024-02-29T12:49:15.094Z,29.50
2024-02-29T12:52:00.070Z,26.67
2024-02-29T12:54:45.246Z,24.73
2024-02-29T12:57:30.862Z,33.30
2024-02-29T13:00:08.947Z,28.13
2024-02-29T13:02:45.438Z,23.95
2024-02-29T13:05:26.177Z,23.90
2024-02-29T13:08:00.697Z,25.15
2024-02-29T13:10:54.780Z,23.80
2024-02-29T13:13:38.416Z,25.70
2024-02-29T13:16:15.184Z,21.42
2024-02-29T13:19:13.668Z,28.15
2024-02-29T13:21:52.237Z,28.48
2024-02-29T13:24:33.288Z,22.83
2024-02-29T13:30:00.318Z,21.08
2024-02-29T13:32:43.785Z,23.10
2024-02-29T13:35:23.861Z,25.13
2024-02-29T13:38:03.574Z,31.75
2024-02-29T13:40:39.301Z,21.95
2024-02-29T13:43:26.333Z,24.23
2024-02-29T13:46:09.759Z,20.42
2024-02-29T13:48:47.425Z,21.23
2024-02-29T13:51:27.496Z,30.88
2024-02-29T13:54:12.051Z,29.05
2024-02-29T13:56:57.464Z,22.25
2024-02-29T13:59:47.041Z,23.17
2024-02-29T14:02:27.610Z,18.17
2024-02-29T14:05:11.401Z,21.85
2024-02-29T14:07:52.626Z,21.48
2024-02-29T14:10:34.552Z,22.23
2024-02-29T14:13:15.791Z,17.48
2024-02-29T14:16:08.107Z,21.33
2024-02-29T14:18:47.229Z,23.55
2024-02-29T14:21:31.660Z,25.33
2024-02-29T14:24:09.543Z,19.42
2024-02-29T14:26:42.829Z,19.75
2024-02-29T14:29:20.982Z,18.95
2024-02-29T14:31:58.729Z,20.60
2024-02-29T14:34:32.726Z,22.17
2024-02-29T14:37:22.117Z,22.83
2024-02-29T14:40:21.321Z,24.60
2024-02-29T14:42:54.843Z,29.23
2024-02-29T14:45:32.969Z,19.95
2024-02-29T14:48:18.740Z,19.80
2024-02-29T14:51:03.706Z,29.85
2024-02-29T14:53:53.022Z,27.08
2024-02-29T14:56:36.561Z,29.38
2024-02-29T14:59:14.014Z,24.33
2024-02-29T15:02:09.579Z,21.48
2024-02-29T15:04:50.891Z,22.75
2024-02-29T15:07:36.308Z,19.58
2024-02-29T15:10:19.232Z,25.90
2024-02-29T15:12:58.009Z,20.40
2024-02-29T15:15:51.265Z,19.27
2024-02-29T15:18:26.566Z,20.27
2024-02-29T15:21:20.740Z,24.35
2024-02-29T15:24:11.389Z,17.33
2024-02-29T15:26:51.465Z,17.05
2024-02-29T15:29:35.142Z,20.73
2024-02-29T15:32:22.686Z,18.58
2024-02-29T15:35:04.165Z,19.77
2024-02-29T15:37:46.461Z,24.45
2024-02-29T15:40:22.106Z,18.77
2024-02-29T15:43:12.656Z,18.55
2024-02-29T15:45:51.989Z,17.70
2024-02-29T15:48:33.186Z,22.90
2024-02-29T15:51:18.343Z,20.75
2024-02-29T15:54:04.042Z,23.02
2024-02-29T15:56:44.146Z,23.02
2024-02-29T15:59:30.037Z,16.23
2024-02-29T16:02:11.048Z,19.60
2024-02-29T16:07:31.571Z,16.83
2024-02-29T16:10:16.808Z,24.50
2024-02-29T16:12:56.942Z,17.98
2024-02-29T16:15:38.063Z,24.40
2024-02-29T16:18:16.855Z,19.27
2024-02-29T16:21:05.222Z,19.75
2024-02-29T16:23:52.649Z,22.10
2024-02-29T16:26:36.100Z,23.05
2024-02-29T16:29:27.912Z,19.75
2024-02-29T16:32:12.393Z,21.42
2024-02-29T16:35:03.126Z,22.85
2024-02-29T16:37:48.629Z,21.55
2024-02-29T16:40:37.679Z,23.90
2024-02-29T16:43:25.295Z,19.48
2024-02-29T16:46:04.054Z,25.63
2024-02-29T16:48:42.862Z,22.58
2024-02-29T16:51:26.008Z,17.23
2024-02-29T16:54:14.212Z,19.85
2024-02-29T16:56:52.749Z,16.73
2024-02-29T16:59:45.601Z,17.85
2024-02-29T17:02:28.887Z,18.98
2024-02-29T17:05:07.129Z,19.48
2024-02-29T17:07:47.231Z,19.63
2024-02-29T17:10:36.432Z,21.08
2024-02-29T17:13:24.670Z,23.13
2024-02-29T17:16:05.324Z,22.08
2024-02-29T17:18:41.591Z,18.88
2024-02-29T17:21:21.653Z,21.15
2024-02-29T17:24:01.722Z,21.23
2024-02-29T17:26:47.381Z,21.80
2024-02-29T17:29:28.393Z,21.02
2024-02-29T17:32:18.545Z,24.73
2024-02-29T17:34:58.037Z,23.77
2024-02-29T17:37:38.112Z,20.73
2024-02-29T17:40:25.244Z,23.98
2024-02-29T17:43:05.109Z,21.92
2024-02-29T17:45:53.749Z,24.67
2024-02-29T17:48:40.623Z,24.27
2024-02-29T17:51:23.432Z,20.73
2024-02-29T17:54:08.856Z,24.30
2024-02-29T17:56:44.841Z,21.35
2024-02-29T17:59:17.716Z,21.70
2024-02-29T18:01:59.117Z,21.23
2024-02-29T18:04:41.925Z,19.38
2024-02-29T18:07:18.045Z,24.15
2024-02-29T18:09:58.324Z,24.55
2024-02-29T18:12:38.038Z,20.20
2024-02-29T18:15:15.246Z,27.13
2024-02-29T18:17:54.512Z,23.17
2024-02-29T18:20:33.200Z,20.02
2024-02-29T18:23:11.974Z,27.38
2024-02-29T18:25:51.234Z,22.17
2024-02-29T18:28:27.594Z,21.42
2024-02-29T18:31:11.135Z,22.73
2024-02-29T18:33:50.716Z,27.58
2024-02-29T18:36:37.169Z,22.50
2024-02-29T18:39:17.839Z,24.25
2024-02-29T18:41:48.997Z,25.88
2024-02-29T18:44:24.184Z,28.10
2024-02-29T18:47:09.116Z,27.20
2024-02-29T18:49:54.354Z,22.75
2024-02-29T18:52:48.341Z,30.90
2024-02-29T18:55:30.993Z,24.33
2024-02-29T18:58:14.866Z,22.20
2024-02-29T19:00:58.971Z,22.85
2024-02-29T19:03:35.202Z,21.60
2024-02-29T19:06:14.067Z,21.15
2024-02-29T19:08:58.321Z,25.75
2024-02-29T19:11:38.825Z,23.35
2024-02-29T19:14:20.545Z,22.50
2024-02-29T19:19:50.249Z,20.50
2024-02-29T19:22:28.800Z,26.33
2024-02-29T19:25:12.126Z,25.42
2024-02-29T19:27:50.376Z,23.08
2024-02-29T19:30:32.100Z,24.88
2024-02-29T19:33:08.898Z,24.15
2024-02-29T19:35:56.235Z,23.50
2024-02-29T19:38:33.463Z,28.15
2024-02-29T19:41:20.857Z,29.20
2024-02-29T19:43:59.348Z,28.67
2024-02-29T19:46:38.208Z,27.90
2024-02-29T19:49:25.673Z,27.52
2024-02-29T19:52:10.741Z,25.67
2024-02-29T19:54:50.876Z,28.52
2024-02-29T19:57:31.311Z,28.23
2024-02-29T20:00:08.870Z,28.50
2024-02-29T20:03:11.609Z,29.15
2024-02-29T20:05:54.781Z,34.95
2024-02-29T20:08:34.500Z,38.92
2024-02-29T20:11:20.217Z,25.58
2024-02-29T20:14:15.215Z,28.45
2024-02-29T20:16:50.180Z,30.17
2024-02-29T20:19:31.002Z,29.35
2024-02-29T20:22:13.551Z,27.15
2024-02-29T20:24:57.446Z,28.92
2024-02-29T20:27:38.868Z,27.80
2024-02-29T20:30:30.803Z,29.65
2024-02-29T20:33:13.606Z,28.95
2024-02-29T20:35:55.721Z,34.90
2024-02-29T20:38:31.378Z,31.48
2024-02-29T20:41:13.653Z,40.88
2024-02-29T20:43:57.464Z,28.98
2024-02-29T20:46:45.232Z,31.00
2024-02-29T20:49:23.793Z,30.88
2024-02-29T20:52:08.738Z,30.85
2024-02-29T20:54:47.968Z,31.35
2024-02-29T20:57:30.843Z,26.50
2024-02-29T21:00:11.175Z,32.78
2024-02-29T21:02:56.194Z,32.03
2024-02-29T21:05:37.816Z,29.63
2024-02-29T21:11:03.578Z,30.52
2024-02-29T21:13:41.332Z,28.83
2024-02-29T21:16:16.759Z,32.20
2024-02-29T21:19:06.005Z,32.55
2024-02-29T21:21:46.462Z,29.00
2024-02-29T21:24:27.156Z,32.08
2024-02-29T21:27:26.006Z,31.65
2024-02-29T21:30:05.547Z,37.00
2024-02-29T21:32:46.644Z,31.25
2024-02-29T21:38:06.875Z,28.27
2024-02-29T21:40:45.217Z,31.48
2024-02-29T21:43:24.655Z,31.55
2024-02-29T21:46:02.560Z,29.98
2024-02-29T21:48:44.021Z,29.83
2024-02-29T21:51:31.752Z,34.22
2024-02-29T21:54:27.466Z,27.65
2024-02-29T21:57:06.748Z,30.02
2024-02-29T21:59:39.136Z,28.42
2024-02-29T22:02:25.475Z,29.15
2024-02-29T22:05:06.921Z,35.95
2024-02-29T22:07:59.413Z,30.35
2024-02-29T22:13:21.701Z,26.88
2024-02-29T22:16:03.901Z,32.40
2024-02-29T22:18:47.780Z,28.50
2024-02-29T22:21:33.755Z,32.15
2024-02-29T22:24:18.226Z,31.92
2024-02-29T22:26:54.263Z,28.55
2024-02-29T22:29:44.364Z,28.77
2024-02-29T22:32:40.303Z,26.25
2024-02-29T22:35:30.699Z,29.70
2024-02-29T22:38:16.798Z,28.00
2024-02-29T22:41:13.109Z,31.67
2024-02-29T22:43:54.644Z,35.83
2024-02-29T22:46:34.119Z,36.47
2024-02-29T22:49:22.510Z,29.50
2024-02-29T22:52:01.950Z,32.22
2024-02-29T22:54:43.101Z,34.05
2024-02-29T22:59:59.594Z,32.88
2024-02-29T23:02:44.841Z,34.03
2024-02-29T23:05:23.357Z,41.35
2024-02-29T23:08:00.681Z,37.05
2024-02-29T23:10:35.001Z,28.17
2024-02-29T23:13:16.699Z,39.55
2024-02-29T23:15:53.232Z,37.05
2024-02-29T23:18:34.564Z,39.97
2024-02-29T23:21:13.930Z,35.50
2024-02-29T23:23:54.217Z,33.47
2024-02-29T23:26:36.463Z,33.80
2024-02-29T23:29:15.107Z,35.17
2024-02-29T23:31:58.737Z,36.33
2024-02-29T23:34:49.856Z,32.08
2024-02-29T23:37:28.415Z,31.83
2024-02-29T23:40:06.484Z,34.22
2024-02-29T23:42:51.029Z,37.90
2024-02-29T23:45:41.884Z,39.13
2024-02-29T23:50:58.115Z,33.00
2024-02-29T23:53:38.699Z,32.70
2024-02-29T23:56:20.743Z,39.33
2024-02-29T23:58:56.801Z,35.83
